createdAt,value
2022-09-18T00:00:00.838Z,99547.41
2022-09-18T00:03:03.152Z,99553.25
2022-09-18T00:06:07.456Z,99552.19
2022-09-18T00:09:11.468Z,99563.44
2022-09-18T00:12:14.016Z,99559.06
2022-09-18T00:15:17.297Z,99567.78
2022-09-18T00:18:20.543Z,99569.41
2022-09-18T00:21:27.452Z,99559.75
2022-09-18T00:24:30.571Z,99561.31
2022-09-18T00:27:32.910Z,99575.38
2022-09-18T00:30:35.511Z,99569.19
2022-09-18T00:33:40.003Z,99563.97
2022-09-18T00:36:42.559Z,99567.34
2022-09-18T00:39:44.864Z,99566.44
2022-09-18T00:42:47.368Z,99569.94
2022-09-18T00:45:53.769Z,99580.44
2022-09-18T00:49:35.223Z,99563.69
2022-09-18T00:52:42.363Z,99563.53
2022-09-18T00:55:44.972Z,99562.72
2022-09-18T00:58:47.390Z,99568.06
2022-09-18T01:01:49.962Z,99564.56
2022-09-18T01:04:52.402Z,99565.38
2022-09-18T01:08:07.719Z,99568.91
2022-09-18T01:11:19.099Z,99563.84
2022-09-18T01:14:21.585Z,99569.03
2022-09-18T01:17:44.262Z,99566.56
2022-09-18T01:20:55.086Z,99570.16
2022-09-18T01:24:00.175Z,99572.09
2022-09-18T01:27:05.572Z,99569.47
2022-09-18T01:30:09.207Z,99565.56
2022-09-18T01:33:32.032Z,99581.34
2022-09-18T01:36:36.459Z,99579.56
2022-09-18T01:39:43.385Z,99575.59
2022-09-18T01:42:47.954Z,99587.31
2022-09-18T01:45:53.312Z,99578.06
2022-09-18T01:48:58.435Z,99577.59
2022-09-18T01:52:15.643Z,99589.06
2022-09-18T01:55:20.973Z,99593.47
2022-09-18T01:58:24.961Z,99600.69
2022-09-18T02:01:29.793Z,99599.06
2022-09-18T02:04:35.241Z,99600.13
2022-09-18T02:07:43.917Z,99609.63
2022-09-18T02:10:54.200Z,99612.13
2022-09-18T02:14:05.688Z,99628.63
2022-09-18T02:17:13.546Z,99632.03
2022-09-18T02:20:20.648Z,99639.00
2022-09-18T02:23:23.589Z,99639.00
2022-09-18T02:26:26.920Z,99660.00
2022-09-18T02:29:30.146Z,99656.81
2022-09-18T02:32:32.661Z,99662.16
2022-09-18T02:35:43.519Z,99658.00
2022-09-18T02:38:55.428Z,99675.66
2022-09-18T02:42:00.978Z,99670.59
2022-09-18T02:45:06.056Z,99679.28
2022-09-18T02:48:26.830Z,99680.25
2022-09-18T02:52:01.935Z,99677.72
2022-09-18T02:55:11.733Z,99672.78
2022-09-18T02:58:21.003Z,99679.78
2022-09-18T03:01:25.634Z,99673.94
2022-09-18T03:04:28.140Z,99683.53
2022-09-18T03:07:31.591Z,99677.62
2022-09-18T03:10:34.846Z,99692.47
2022-09-18T03:13:37.937Z,99688.31
2022-09-18T03:16:40.332Z,99691.19
2022-09-18T03:19:44.714Z,99691.28
2022-09-18T03:22:47.965Z,99703.59
2022-09-18T03:25:50.922Z,99696.72
2022-09-18T03:28:53.837Z,99696.00
2022-09-18T03:31:56.736Z,99695.94
2022-09-18T03:34:59.170Z,99703.84
2022-09-18T03:38:02.649Z,99711.75
2022-09-18T03:41:05.510Z,99709.16
2022-09-18T03:44:08.552Z,99705.88
2022-09-18T03:47:14.831Z,99712.78
2022-09-18T03:50:17.598Z,99713.59
2022-09-18T03:53:20.008Z,99717.16
2022-09-18T03:56:22.645Z,99719.13
2022-09-18T03:59:26.010Z,99727.06
2022-09-18T04:02:28.883Z,99722.88
2022-09-18T04:05:49.050Z,99719.50
2022-09-18T04:08:54.407Z,99732.53
2022-09-18T04:11:58.666Z,99748.87
2022-09-18T04:15:00.993Z,99750.56
2022-09-18T04:18:05.200Z,99762.81
2022-09-18T04:21:07.730Z,99759.44
2022-09-18T04:24:10.520Z,99767.22
2022-09-18T04:27:12.821Z,99776.66
2022-09-18T04:30:16.123Z,99781.06
2022-09-18T04:33:18.535Z,99788.06
2022-09-18T04:36:22.890Z,99792.41
2022-09-18T04:39:25.505Z,99794.22
2022-09-18T04:42:28.075Z,99794.22
2022-09-18T04:45:30.359Z,99796.78
2022-09-18T04:48:33.211Z,99805.28
2022-09-18T04:51:36.480Z,99812.88
2022-09-18T04:54:39.088Z,99819.25
2022-09-18T04:57:41.686Z,99821.50
2022-09-18T05:00:50.636Z,99826.16
2022-09-18T05:03:53.889Z,99826.50
2022-09-18T05:06:57.324Z,99828.38
2022-09-18T05:10:00.563Z,99827.63
2022-09-18T05:13:03.275Z,99822.41
2022-09-18T05:16:06.537Z,99824.19
2022-09-18T05:19:09.551Z,99833.22
2022-09-18T05:22:11.775Z,99836.41
2022-09-18T05:25:15.018Z,99843.06
2022-09-18T05:28:19.232Z,99829.91
2022-09-18T05:31:22.793Z,99843.44
2022-09-18T05:34:25.625Z,99853.84
2022-09-18T05:37:28.230Z,99844.47
2022-09-18T05:40:33.326Z,99842.00
2022-09-18T05:43:35.948Z,99847.50
2022-09-18T05:46:42.391Z,99839.69
2022-09-18T05:49:45.158Z,99840.00
2022-09-18T05:52:47.665Z,99840.34
2022-09-18T05:55:50.475Z,99849.63
2022-09-18T05:58:54.386Z,99839.09
2022-09-18T06:01:57.356Z,99848.06
2022-09-18T06:05:00.241Z,99858.78
2022-09-18T06:08:04.619Z,99852.88
2022-09-18T06:11:07.157Z,99849.84
2022-09-18T06:14:09.484Z,99846.47
2022-09-18T06:17:12.194Z,99851.72
2022-09-18T06:20:16.235Z,99856.94
2022-09-18T06:23:20.002Z,99851.84
2022-09-18T06:26:24.168Z,99856.25
2022-09-18T06:29:27.105Z,99859.88
2022-09-18T06:32:29.704Z,99855.34
2022-09-18T06:35:33.118Z,99857.56
2022-09-18T06:38:36.007Z,99852.31
2022-09-18T06:41:38.695Z,99856.59
2022-09-18T06:44:41.024Z,99860.12
2022-09-18T06:47:43.825Z,99862.97
2022-09-18T06:50:57.483Z,99862.97
2022-09-18T06:54:00.708Z,99869.00
2022-09-18T06:57:03.005Z,99865.34
2022-09-18T07:00:06.245Z,99860.94
2022-09-18T07:03:10.338Z,99864.25
2022-09-18T07:06:17.998Z,99868.03
2022-09-18T07:09:21.336Z,99867.34
2022-09-18T07:12:24.751Z,99874.69
2022-09-18T07:15:27.675Z,99869.44
2022-09-18T07:18:30.271Z,99885.31
2022-09-18T07:21:32.686Z,99887.56
2022-09-18T07:24:36.762Z,99898.06
2022-09-18T07:27:39.477Z,99894.41
2022-09-18T07:30:42.453Z,99895.88
2022-09-18T07:33:45.036Z,99918.81
2022-09-18T07:36:50.887Z,99911.28
2022-09-18T07:39:53.637Z,99907.69
2022-09-18T07:43:00.663Z,99922.94
2022-09-18T07:46:03.022Z,99914.44
2022-09-18T07:49:05.948Z,99927.13
2022-09-18T07:52:08.454Z,99915.22
2022-09-18T07:55:12.452Z,99939.97
2022-09-18T07:58:15.000Z,99939.78
2022-09-18T08:01:20.194Z,99927.00
2022-09-18T08:04:23.363Z,99933.69
2022-09-18T08:07:27.258Z,99934.34
2022-09-18T08:10:30.233Z,99924.22
2022-09-18T08:13:33.239Z,99942.34
2022-09-18T08:16:36.099Z,99933.47
2022-09-18T08:19:40.122Z,99926.09
2022-09-18T08:22:43.364Z,99939.03
2022-09-18T08:25:47.613Z,99920.56
2022-09-18T08:28:50.362Z,99923.00
2022-09-18T08:31:52.717Z,99929.16
2022-09-18T08:34:56.617Z,99928.59
2022-09-18T08:37:59.309Z,99927.59
2022-09-18T08:41:22.415Z,99946.00
2022-09-18T08:44:29.429Z,99936.78
2022-09-18T08:47:35.394Z,99937.69
2022-09-18T08:50:41.412Z,99942.44
2022-09-18T08:53:46.897Z,99942.91
2022-09-18T08:56:51.279Z,99947.50
2022-09-18T09:00:00.171Z,99944.53
2022-09-18T09:03:02.534Z,99944.06
2022-09-18T09:06:20.601Z,99954.25
2022-09-18T09:09:23.179Z,99944.09
2022-09-18T09:12:41.141Z,99940.66
2022-09-18T09:15:43.500Z,99946.06
2022-09-18T09:18:46.410Z,99951.97
2022-09-18T09:21:52.455Z,99947.81
2022-09-18T09:25:01.953Z,99949.47
2022-09-18T09:28:16.325Z,99949.97
2022-09-18T09:31:23.315Z,99947.91
2022-09-18T09:34:35.604Z,99950.13
2022-09-18T09:37:41.596Z,99964.22
2022-09-18T09:40:46.732Z,99961.72
2022-09-18T09:43:55.008Z,99974.62
2022-09-18T09:47:00.448Z,99962.69
2022-09-18T09:50:10.206Z,99960.97
2022-09-18T09:53:13.078Z,99956.75
2022-09-18T09:56:28.903Z,99962.28
2022-09-18T09:59:50.212Z,99968.44
2022-09-18T10:03:03.735Z,99970.19
2022-09-18T10:06:25.474Z,99966.72
2022-09-18T10:09:40.397Z,99968.22
2022-09-18T10:12:52.012Z,99980.75
2022-09-18T10:16:14.814Z,99980.59
2022-09-18T10:19:19.169Z,99984.06
2022-09-18T10:22:23.223Z,99975.78
2022-09-18T10:25:42.084Z,99968.25
2022-09-18T10:28:45.398Z,99970.28
2022-09-18T10:31:52.548Z,100004.56
2022-09-18T10:34:55.283Z,99995.41
2022-09-18T10:37:58.701Z,99990.09
2022-09-18T10:41:11.326Z,100000.56
2022-09-18T10:44:14.582Z,100002.56
2022-09-18T10:47:18.348Z,100007.19
2022-09-18T10:50:21.103Z,99991.94
2022-09-18T10:53:31.239Z,99998.72
2022-09-18T10:56:35.985Z,99988.22
2022-09-18T10:59:38.595Z,99994.88
2022-09-18T11:02:50.168Z,100017.81
2022-09-18T11:05:55.303Z,99980.78
2022-09-18T11:09:00.268Z,99977.03
2022-09-18T11:12:02.812Z,99985.72
2022-09-18T11:15:07.873Z,99986.22
2022-09-18T11:18:15.852Z,99980.50
2022-09-18T11:21:19.309Z,99996.44
2022-09-18T11:24:25.164Z,99981.75
2022-09-18T11:27:43.660Z,99978.25
2022-09-18T11:30:54.976Z,99992.47
2022-09-18T11:33:59.931Z,99973.66
2022-09-18T11:37:11.714Z,99969.41
2022-09-18T11:40:20.691Z,99968.41
2022-09-18T11:43:28.586Z,99974.81
2022-09-18T11:46:46.342Z,99979.19
2022-09-18T11:50:00.844Z,99969.91
2022-09-18T11:53:24.150Z,99966.00
2022-09-18T11:56:47.668Z,99961.44
2022-09-18T11:59:54.971Z,99963.41
2022-09-18T12:03:02.704Z,99965.38
2022-09-18T12:06:32.754Z,99970.81
2022-09-18T12:09:39.737Z,99970.03
2022-09-18T12:13:01.182Z,99950.72
2022-09-18T12:16:17.076Z,99967.78
2022-09-18T12:19:30.371Z,99974.56
2022-09-18T12:22:50.999Z,99970.00
2022-09-18T12:25:59.692Z,99959.19
2022-09-18T12:29:37.007Z,99960.63
2022-09-18T12:32:51.941Z,99964.22
2022-09-18T12:36:06.490Z,99957.75
2022-09-18T12:39:28.546Z,99960.69
2022-09-18T12:42:42.692Z,99958.78
2022-09-18T12:45:45.203Z,99953.94
2022-09-18T12:49:05.283Z,99959.94
2022-09-18T12:52:20.024Z,99958.31
2022-09-18T12:55:30.516Z,99958.28
2022-09-18T12:58:33.058Z,99951.59
2022-09-18T13:01:45.244Z,99959.56
2022-09-18T13:04:57.490Z,99943.34
2022-09-18T13:08:05.936Z,99941.84
2022-09-18T13:11:12.305Z,99952.00
2022-09-18T13:14:18.938Z,99941.09
2022-09-18T13:17:33.838Z,99945.72
2022-09-18T13:20:41.111Z,99936.62
2022-09-18T13:23:45.115Z,99942.63
2022-09-18T13:26:48.904Z,99934.56
2022-09-18T13:29:51.733Z,99945.25
2022-09-18T13:32:54.711Z,99948.37
2022-09-18T13:35:57.784Z,99950.97
2022-09-18T13:39:02.681Z,99958.13
2022-09-18T13:42:05.539Z,99951.25
2022-09-18T13:45:19.548Z,99964.34
2022-09-18T13:48:30.566Z,99985.91
2022-09-18T13:51:38.324Z,99999.78
2022-09-18T13:54:59.308Z,100000.47
2022-09-18T13:58:20.377Z,100006.44
2022-09-18T14:01:41.673Z,100012.69
2022-09-18T14:04:46.833Z,100011.84
2022-09-18T14:07:51.828Z,100023.87
2022-09-18T14:11:16.271Z,100017.97
2022-09-18T14:14:21.535Z,100024.53
2022-09-18T14:17:25.624Z,100009.78
2022-09-18T14:20:30.209Z,100008.84
2022-09-18T14:23:35.962Z,100023.44
2022-09-18T14:26:38.975Z,100027.66
2022-09-18T14:29:42.262Z,100023.69
2022-09-18T14:33:01.299Z,100014.41
2022-09-18T14:36:05.880Z,100023.34
2022-09-18T14:39:22.105Z,100016.28
2022-09-18T14:42:33.322Z,100012.59
2022-09-18T14:45:35.792Z,100007.81
2022-09-18T14:48:39.002Z,100016.81
2022-09-18T14:52:02.765Z,100013.81
2022-09-18T14:55:10.748Z,100017.47
2022-09-18T14:58:15.575Z,100028.56
2022-09-18T15:01:21.539Z,100026.75
2022-09-18T15:04:25.963Z,100036.91
2022-09-18T15:07:28.954Z,100031.94
2022-09-18T15:10:34.082Z,100034.09
2022-09-18T15:13:37.888Z,100026.25
2022-09-18T15:16:40.176Z,100022.59
2022-09-18T15:19:54.196Z,100025.97
2022-09-18T15:22:57.131Z,100029.38
2022-09-18T15:26:02.499Z,100028.59
2022-09-18T15:29:06.456Z,100025.09
2022-09-18T15:32:11.272Z,100035.25
2022-09-18T15:35:18.951Z,100029.09
2022-09-18T15:38:24.038Z,100030.72
2022-09-18T15:41:32.190Z,100029.09
2022-09-18T15:44:34.678Z,100035.41
2022-09-18T15:47:39.255Z,100039.69
2022-09-18T15:50:43.119Z,100037.22
2022-09-18T15:54:04.026Z,100038.44
2022-09-18T15:57:13.590Z,100042.56
2022-09-18T16:00:20.847Z,100047.34
2022-09-18T16:03:25.500Z,100042.44
2022-09-18T16:06:29.118Z,100052.59
2022-09-18T16:09:37.008Z,100042.88
2022-09-18T16:12:41.923Z,100046.72
2022-09-18T16:15:47.561Z,100051.69
2022-09-18T16:18:52.464Z,100064.25
2022-09-18T16:21:55.097Z,100073.81
2022-09-18T16:24:58.002Z,100078.53
2022-09-18T16:28:14.877Z,100064.94
2022-09-18T16:31:18.927Z,100074.75
2022-09-18T16:34:28.778Z,100078.75
2022-09-18T16:37:31.192Z,100079.97
2022-09-18T16:40:34.648Z,100082.94
2022-09-18T16:43:36.985Z,100087.78
2022-09-18T16:46:42.636Z,100092.91
2022-09-18T16:49:46.738Z,100085.16
2022-09-18T16:52:49.295Z,100087.13
2022-09-18T16:55:52.842Z,100080.75
2022-09-18T16:58:56.643Z,100095.28
2022-09-18T17:02:04.204Z,100089.84
2022-09-18T17:05:07.469Z,100092.84
2022-09-18T17:08:10.256Z,100085.28
2022-09-18T17:11:12.965Z,100086.50
2022-09-18T17:14:15.513Z,100079.94
2022-09-18T17:17:18.213Z,100074.28
2022-09-18T17:20:21.135Z,100077.06
2022-09-18T17:23:23.831Z,100091.59
2022-09-18T17:26:28.500Z,100088.41
2022-09-18T17:29:31.212Z,100083.88
2022-09-18T17:32:33.556Z,100086.78
2022-09-18T17:35:36.450Z,100090.28
2022-09-18T17:38:39.692Z,100101.25
2022-09-18T17:41:42.634Z,100109.09
2022-09-18T17:44:44.908Z,100100.59
2022-09-18T17:47:50.513Z,100108.72
2022-09-18T17:50:58.242Z,100104.03
2022-09-18T17:54:02.933Z,100109.75
2022-09-18T17:57:14.420Z,100104.19
2022-09-18T18:00:19.153Z,100115.94
2022-09-18T18:03:22.723Z,100122.34
2022-09-18T18:06:26.526Z,100125.37
2022-09-18T18:09:29.403Z,100131.72
2022-09-18T18:12:32.152Z,100135.47
2022-09-18T18:15:34.653Z,100133.09
2022-09-18T18:18:37.303Z,100137.44
2022-09-18T18:21:41.255Z,100139.38
2022-09-18T18:24:43.569Z,100141.44
2022-09-18T18:27:46.126Z,100138.75
2022-09-18T18:31:06.040Z,100143.94
2022-09-18T18:34:10.757Z,100145.69
2022-09-18T18:37:13.206Z,100149.94
2022-09-18T18:40:17.743Z,100148.06
2022-09-18T18:43:23.088Z,100147.09
2022-09-18T18:46:27.874Z,100152.25
2022-09-18T18:49:31.156Z,100151.81
2022-09-18T18:52:33.756Z,100149.47
2022-09-18T18:55:36.508Z,100155.81
2022-09-18T18:58:39.599Z,100156.84
2022-09-18T19:01:43.200Z,100154.78
2022-09-18T19:04:45.951Z,100154.00
2022-09-18T19:07:49.402Z,100155.22
2022-09-18T19:11:00.978Z,100150.38
2022-09-18T19:14:03.372Z,100159.41
2022-09-18T19:17:05.947Z,100163.38
2022-09-18T19:20:08.680Z,100160.16
2022-09-18T19:23:13.279Z,100147.44
2022-09-18T19:26:15.808Z,100147.56
2022-09-18T19:29:19.536Z,100146.84
2022-09-18T19:32:22.178Z,100148.84
2022-09-18T19:35:24.830Z,100148.00
2022-09-18T19:38:27.275Z,100142.78
2022-09-18T19:41:38.854Z,100145.09
2022-09-18T19:44:44.358Z,100148.78
2022-09-18T19:47:48.652Z,100156.59
2022-09-18T19:50:55.420Z,100157.88
2022-09-18T19:53:57.967Z,100160.97
2022-09-18T19:57:00.242Z,100163.81
2022-09-18T20:00:03.337Z,100152.75
2022-09-18T20:03:15.347Z,100155.75
2022-09-18T20:06:18.136Z,100164.06
2022-09-18T20:09:20.635Z,100166.25
2022-09-18T20:12:23.341Z,100158.94
2022-09-18T20:15:26.063Z,100151.31
2022-09-18T20:18:30.101Z,100151.31
2022-09-18T20:21:33.116Z,100153.63
2022-09-18T20:24:35.586Z,100153.94
2022-09-18T20:27:39.131Z,100155.09
2022-09-18T20:30:43.513Z,100153.41
2022-09-18T20:33:45.843Z,100151.31
2022-09-18T20:36:49.572Z,100145.66
2022-09-18T20:39:51.904Z,100138.87
2022-09-18T20:42:55.539Z,100144.22
2022-09-18T20:46:02.871Z,100137.78
2022-09-18T20:49:07.864Z,100138.75
2022-09-18T20:52:14.483Z,100138.84
2022-09-18T20:55:17.418Z,100125.84
2022-09-18T20:58:19.790Z,100133.28
2022-09-18T21:01:27.593Z,100134.12
2022-09-18T21:04:30.034Z,100131.34
2022-09-18T21:07:32.679Z,100112.78
2022-09-18T21:10:47.418Z,100116.34
2022-09-18T21:14:00.804Z,100116.94
2022-09-18T21:17:10.740Z,100115.53
2022-09-18T21:20:15.178Z,100115.75
2022-09-18T21:23:36.108Z,100107.34
2022-09-18T21:26:42.846Z,100112.56
2022-09-18T21:29:45.935Z,100113.22
2022-09-18T21:32:51.610Z,100111.13
2022-09-18T21:35:55.982Z,100104.22
2022-09-18T21:38:59.071Z,100105.16
2022-09-18T21:42:02.169Z,100104.16
2022-09-18T21:45:04.850Z,100103.75
2022-09-18T21:48:07.753Z,100085.16
2022-09-18T21:51:14.458Z,100094.72
2022-09-18T21:54:18.811Z,100082.25
2022-09-18T21:57:22.242Z,100074.97
2022-09-18T22:00:35.290Z,100069.97
2022-09-18T22:03:37.920Z,100078.44
2022-09-18T22:06:41.726Z,100078.22
2022-09-18T22:09:45.052Z,100087.97
2022-09-18T22:12:47.340Z,100079.38
2022-09-18T22:15:52.794Z,100069.38
2022-09-18T22:18:55.188Z,100077.78
2022-09-18T22:22:17.552Z,100078.94
2022-09-18T22:25:19.910Z,100075.25
2022-09-18T22:28:24.922Z,100071.41
2022-09-18T22:31:28.245Z,100056.84
2022-09-18T22:34:32.604Z,100063.41
2022-09-18T22:37:34.956Z,100065.94
2022-09-18T22:40:39.728Z,100069.62
2022-09-18T22:43:42.074Z,100066.00
2022-09-18T22:46:45.449Z,100073.53
2022-09-18T22:49:48.393Z,100066.12
2022-09-18T22:52:50.992Z,100064.34
2022-09-18T22:55:53.331Z,100059.12
2022-09-18T22:58:56.477Z,100058.22
2022-09-18T23:02:01.304Z,100052.94
2022-09-18T23:05:04.098Z,100045.62
2022-09-18T23:08:07.198Z,100045.69
2022-09-18T23:11:13.956Z,100048.50
2022-09-18T23:14:18.587Z,100043.16
2022-09-18T23:17:22.871Z,100046.41
2022-09-18T23:20:25.554Z,100044.69
2022-09-18T23:23:32.286Z,100049.78
2022-09-18T23:26:36.001Z,100040.25
2022-09-18T23:29:39.267Z,100041.94
2022-09-18T23:32:41.613Z,100040.09
2022-09-18T23:35:44.119Z,100033.87
2022-09-18T23:38:47.033Z,100041.72
2022-09-18T23:41:50.279Z,100035.00
2022-09-18T23:44:52.484Z,100032.72
2022-09-18T23:47:54.978Z,100035.47
2022-09-18T23:50:59.725Z,100027.63
2022-09-18T23:54:05.639Z,100013.13
2022-09-18T23:57:07.955Z,100021.97
